Time;durP1;ratioP1;P1;durP2;ratioP2;P2;SDS_P1;SDS_P2;PMS_P1;PMS_P2;Temp;Humidity;BMP_temperature;BMP_pressure;BME280_temperature;BME280_humidity;BME280_pressure;Samples;Min_cycle;Max_cycle;Signal;HPM_P1;HPM_P2
2021/10/12 00:00:27;;;;;;;4.18;2.00;;;;;;;11.97;69.73;100240.94;5096822;28;20467;-75
2021/10/12 00:02:53;;;;;;;3.17;2.15;;;;;;;12.07;68.36;100229.19;5096524;28;20051;-72
2021/10/12 00:05:21;;;;;;;3.47;2.00;;;;;;;12.03;69.30;100238.66;5096817;28;20413;-73
2021/10/12 00:07:47;;;;;;;1.75;1.65;;;;;;;12.09;68.12;100233.56;5099970;28;20432;-74
2021/10/12 00:10:13;;;;;;;1.98;1.88;;;;;;;12.11;69.14;100234.84;5100007;28;20035;-73
2021/10/12 00:12:42;;;;;;;2.10;1.80;;;;;;;12.09;68.60;100230.78;5099558;28;20035;-73
2021/10/12 00:15:11;;;;;;;1.92;1.75;;;;;;;12.01;69.01;100241.81;5100034;28;20024;-71
2021/10/12 00:17:37;;;;;;;2.90;1.90;;;;;;;11.88;69.52;100236.78;5118447;28;20110;-72
2021/10/12 00:20:07;;;;;;;2.05;1.58;;;;;;;11.79;69.97;100228.66;5099683;28;20080;-75
2021/10/12 00:22:35;;;;;;;1.80;1.38;;;;;;;11.85;69.30;100230.00;5117887;28;20023;-72
2021/10/12 00:25:04;;;;;;;1.90;1.80;;;;;;;11.77;69.54;100242.13;5118373;28;20035;-73
2021/10/12 00:27:35;;;;;;;1.60;1.50;;;;;;;11.80;70.40;100241.41;5099762;28;20035;-72
2021/10/12 00:30:02;;;;;;;1.85;1.55;;;;;;;11.77;69.71;100245.75;5099099;28;20023;-75
2021/10/12 00:32:32;;;;;;;2.15;1.63;;;;;;;11.66;70.13;100241.13;5099028;28;20035;-74
2021/10/12 00:34:58;;;;;;;2.38;2.17;;;;;;;11.61;70.05;100241.44;5099030;28;20107;-74
2021/10/12 00:37:23;;;;;;;1.67;1.58;;;;;;;11.49;70.15;100234.84;5098581;28;20055;-73
2021/10/12 00:39:49;;;;;;;1.45;1.35;;;;;;;11.46;70.69;100230.03;5099080;28;20066;-75
2021/10/12 00:42:18;;;;;;;2.53;1.80;;;;;;;11.50;70.13;100222.53;5099065;28;20122;-75
2021/10/12 00:44:49;;;;;;;3.10;1.55;;;;;;;11.47;70.56;100234.41;5098676;28;20116;-73
2021/10/12 00:47:14;;;;;;;2.80;1.95;;;;;;;11.46;70.40;100230.03;5098852;28;20530;-74
2021/10/12 00:49:40;;;;;;;4.40;1.52;;;;;;;11.52;70.54;100224.97;5098222;28;20110;-72
2021/10/12 00:52:09;;;;;;;2.20;1.48;;;;;;;11.51;69.38;100228.91;5116642;28;20035;-71
2021/10/12 00:54:38;;;;;;;2.13;1.60;;;;;;;11.41;70.77;100219.16;5098842;28;20086;-73
2021/10/12 00:57:06;;;;;;;2.13;1.42;;;;;;;11.51;70.35;100218.56;5098634;28;20467;-72
2021/10/12 00:59:34;;;;;;;1.45;1.35;;;;;;;11.51;70.29;100217.78;5098662;28;20367;-74
2021/10/12 01:02:03;;;;;;;1.48;1.38;;;;;;;11.48;70.44;100216.50;5098726;28;20040;-72
2021/10/12 01:04:34;;;;;;;2.33;1.40;;;;;;;11.46;70.74;100218.88;5099235;28;20023;-72
2021/10/12 01:07:03;;;;;;;1.58;1.48;;;;;;;11.44;70.31;100224.00;5099244;28;20454;-73
2021/10/12 01:09:31;;;;;;;1.67;1.55;;;;;;;11.43;70.42;100216.81;5098414;28;20057;-74
2021/10/12 01:11:59;;;;;;;1.40;1.30;;;;;;;11.42;70.73;100226.34;5098188;28;20023;-72
2021/10/12 01:14:30;;;;;;;1.30;1.20;;;;;;;11.41;70.65;100230.31;5098424;28;20051;-75
2021/10/12 01:16:59;;;;;;;1.23;1.20;;;;;;;11.34;70.74;100224.56;5098707;28;20362;-71
2021/10/12 01:19:25;;;;;;;2.53;1.30;;;;;;;11.34;70.66;100219.00;5098555;28;20035;-74
2021/10/12 01:21:56;;;;;;;2.03;1.55;;;;;;;11.36;70.91;100219.47;5098320;28;20119;-74
2021/10/12 01:24:24;;;;;;;1.90;1.10;;;;;;;11.38;70.76;100219.88;5098839;28;20050;-74
2021/10/12 01:26:53;;;;;;;0.95;0.95;;;;;;;11.41;70.17;100216.38;5098533;28;20243;-73
2021/10/12 01:29:19;;;;;;;1.73;1.60;;;;;;;11.29;71.02;100216.50;5117310;28;20494;-72
2021/10/12 01:31:51;;;;;;;1.35;1.23;;;;;;;11.28;72.02;100220.47;5098517;28;20030;-72
2021/10/12 01:34:19;;;;;;;1.38;1.27;;;;;;;11.28;71.51;100212.13;5099000;28;20383;-75
2021/10/12 01:36:48;;;;;;;1.95;1.40;;;;;;;11.21;71.40;100218.34;5098531;28;20030;-73
2021/10/12 01:39:16;;;;;;;1.35;1.25;;;;;;;11.22;71.81;100216.38;5098604;28;20019;-73
2021/10/12 01:41:42;;;;;;;1.08;1.08;;;;;;;11.16;71.18;100212.28;5099267;28;20548;-75
2021/10/12 01:44:16;;;;;;;1.83;1.50;;;;;;;11.13;71.62;100202.69;5099209;28;20047;-75
2021/10/12 01:46:42;;;;;;;2.20;1.50;;;;;;;11.12;71.28;100201.06;5098467;28;20027;-73
2021/10/12 01:49:10;;;;;;;2.67;1.20;;;;;;;11.19;71.15;100200.41;5098929;28;20024;-72
2021/10/12 01:51:37;;;;;;;1.40;1.30;;;;;;;11.19;71.07;100200.41;5099279;28;20031;-73
2021/10/12 01:54:23;;;;;;;1.65;1.45;;;;;;;11.09;71.20;100201.00;5098230;28;20030;-75
2021/10/12 01:56:50;;;;;;;1.42;1.33;;;;;;;11.04;71.66;100198.50;5116045;28;20462;-72
2021/10/12 01:59:16;;;;;;;1.85;1.40;;;;;;;11.06;71.39;100196.16;5097721;28;20023;-72
2021/10/12 02:01:42;;;;;;;1.08;1.00;;;;;;;11.04;72.42;100192.94;5097751;28;20491;-74
2021/10/12 02:04:17;;;;;;;3.00;1.65;;;;;;;10.99;72.57;100189.25;5097396;28;20084;-74
2021/10/12 02:06:42;;;;;;;1.30;1.30;;;;;;;11.04;73.27;100181.81;5097934;28;20377;-74
2021/10/12 02:09:08;;;;;;;1.42;1.30;;;;;;;11.17;71.90;100186.03;5096957;28;20055;-74
2021/10/12 02:11:40;;;;;;;1.40;1.30;;;;;;;11.14;72.32;100184.00;5080489;28;20094;-72
2021/10/12 02:14:08;;;;;;;67.43;42.20;;;;;;;11.17;72.07;100180.47;5097255;28;20049;-75
2021/10/12 02:16:34;;;;;;;169.27;106.93;;;;;;;11.17;72.03;100181.28;5097516;28;20031;-74
2021/10/12 02:18:59;;;;;;;118.50;79.53;;;;;;;11.10;71.89;100189.50;5097664;28;20023;-73
2021/10/12 02:21:30;;;;;;;28.23;20.98;;;;;;;11.10;71.40;100185.91;5097658;28;20386;-73
2021/10/12 02:23:59;;;;;;;11.52;9.75;;;;;;;11.18;71.28;100179.28;5097382;28;20031;-72
2021/10/12 02:26:25;;;;;;;9.32;7.68;;;;;;;11.05;71.50;100169.47;5092816;28;20031;-72
2021/10/12 02:28:53;;;;;;;6.22;5.57;;;;;;;10.97;72.14;100176.88;5097681;28;20035;-72
2021/10/12 02:31:22;;;;;;;6.65;5.95;;;;;;;10.98;72.51;100173.75;5097290;28;20063;-72
2021/10/12 02:33:52;;;;;;;7.32;6.35;;;;;;;10.97;72.46;100177.69;5097176;28;20038;-74
2021/10/12 02:36:21;;;;;;;5.20;4.65;;;;;;;10.91;71.69;100168.00;5097699;28;20024;-72
2021/10/12 02:38:46;;;;;;;4.68;4.28;;;;;;;10.85;72.20;100169.47;5097921;28;20106;-74
2021/10/12 02:41:15;;;;;;;5.10;3.88;;;;;;;10.91;72.31;100168.00;5099202;28;20070;-75
2021/10/12 02:43:41;;;;;;;7.78;4.45;;;;;;;10.99;71.70;100169.78;5098748;28;20020;-73
2021/10/12 02:46:06;;;;;;;7.00;5.35;;;;;;;10.97;71.78;100172.13;5097915;28;20027;-73
2021/10/12 02:48:35;;;;;;;6.45;5.85;;;;;;;10.95;71.91;100168.09;5098267;28;20430;-74
2021/10/12 02:51:03;;;;;;;10.07;4.82;;;;;;;10.92;72.61;100175.22;5099217;28;20034;-72
2021/10/12 02:53:31;;;;;;;10.05;9.15;;;;;;;10.89;72.89;100172.34;5099371;28;20122;-73
2021/10/12 02:55:57;;;;;;;14.00;12.07;;;;;;;10.86;73.01;100171.06;5097976;28;20055;-75
2021/10/12 02:58:25;;;;;;;14.68;13.23;;;;;;;10.89;72.47;100164.78;5096242;28;20024;-75
2021/10/12 03:00:51;;;;;;;5.32;4.10;;;;;;;10.92;71.44;100160.47;5096569;28;20032;-74
2021/10/12 03:03:16;;;;;;;2.60;2.25;;;;;;;10.96;71.88;100172.47;5096329;28;20032;-75
2021/10/12 03:06:02;;;;;;;6.70;3.63;;;;;;;10.84;72.13;100161.50;5098146;28;20080;-72
2021/10/12 03:08:28;;;;;;;34.42;29.75;;;;;;;10.80;72.03;100171.72;5099840;28;20048;-73
2021/10/12 03:10:56;;;;;;;20.15;17.58;;;;;;;10.72;72.27;100163.25;5100541;28;20023;-74
2021/10/12 03:13:22;;;;;;;22.20;16.50;;;;;;;10.70;72.38;100161.97;5100079;28;20085;-73
2021/10/12 03:15:48;;;;;;;17.58;13.85;;;;;;;10.59;73.07;100161.75;5099762;28;20024;-74
2021/10/12 03:18:16;;;;;;;15.20;11.85;;;;;;;10.70;73.03;100168.34;5100101;28;20032;-74
2021/10/12 03:20:46;;;;;;;5.38;4.28;;;;;;;10.68;72.63;100164.31;5117995;28;20031;-74
2021/10/12 03:23:12;;;;;;;3.92;3.33;;;;;;;10.71;72.37;100158.84;5100077;28;20031;-76
2021/10/12 03:25:43;;;;;;;3.47;3.17;;;;;;;10.65;72.91;100170.59;5099977;28;20035;-73
2021/10/12 03:28:09;;;;;;;7.30;4.95;;;;;;;10.55;73.70;100168.41;5099846;28;20110;-73
2021/10/12 03:30:38;;;;;;;5.80;4.90;;;;;;;10.62;73.63;100172.16;5099742;28;20059;-74
2021/10/12 03:33:04;;;;;;;5.82;5.32;;;;;;;10.67;73.73;100173.84;5099821;28;20120;-76
2021/10/12 03:35:34;;;;;;;7.40;5.53;;;;;;;10.71;73.48;100163.63;5099928;28;20102;-74
2021/10/12 03:37:59;;;;;;;5.45;4.95;;;;;;;10.60;73.84;100173.66;5100008;28;20046;-72
2021/10/12 03:40:26;;;;;;;7.35;6.57;;;;;;;10.66;73.67;100169.47;5118465;28;20028;-74
2021/10/12 03:42:52;;;;;;;8.63;6.80;;;;;;;10.62;74.01;100163.00;5099797;28;20043;-74
2021/10/12 03:45:20;;;;;;;10.02;8.25;;;;;;;10.63;74.25;100167.41;5100479;28;20027;-75
2021/10/12 03:47:46;;;;;;;9.55;8.13;;;;;;;10.58;74.28;100162.13;5099961;28;20032;-74
2021/10/12 03:50:12;;;;;;;4.55;4.05;;;;;;;10.68;73.05;100164.31;5099751;28;20031;-73
2021/10/12 03:52:40;;;;;;;3.60;3.30;;;;;;;10.62;73.57;100158.25;5099625;28;20398;-74
2021/10/12 03:55:07;;;;;;;3.60;2.90;;;;;;;10.53;73.35;100165.19;5099827;28;20020;-73
2021/10/12 03:57:33;;;;;;;4.30;2.90;;;;;;;10.59;73.76;100160.94;5100569;28;20393;-72
2021/10/12 03:59:59;;;;;;;4.82;3.25;;;;;;;10.55;73.59;100154.50;5100971;28;20032;-74
2021/10/12 04:02:25;;;;;;;2.67;2.20;;;;;;;10.54;73.99;100158.44;5101119;28;20526;-75
2021/10/12 04:04:53;;;;;;;3.67;1.75;;;;;;;10.54;74.31;100152.88;5101113;28;20023;-75
2021/10/12 04:07:22;;;;;;;2.03;1.92;;;;;;;10.56;74.04;100153.34;5100643;28;20031;-74
2021/10/12 04:09:47;;;;;;;1.90;1.55;;;;;;;10.59;73.40;100155.38;5096809;28;20052;-72
2021/10/12 04:12:14;;;;;;;4.10;1.67;;;;;;;10.60;73.50;100148.63;5096944;28;20121;-75
2021/10/12 04:14:43;;;;;;;1.45;1.35;;;;;;;10.60;72.73;100155.03;5096203;28;20462;-73
2021/10/12 04:17:08;;;;;;;1.60;1.50;;;;;;;10.63;73.29;100150.69;5096452;28;20044;-73
2021/10/12 04:19:37;;;;;;;1.60;1.40;;;;;;;10.57;73.56;100147.41;5096991;28;20363;-73
2021/10/12 04:22:03;;;;;;;1.85;1.75;;;;;;;10.67;73.65;100151.59;5097632;28;20360;-73
2021/10/12 04:24:31;;;;;;;2.58;1.50;;;;;;;10.68;73.03;100153.19;5096381;28;20020;-74
2021/10/12 04:26:57;;;;;;;3.17;1.60;;;;;;;10.57;73.11;100143.81;5095599;28;20090;-74
2021/10/12 04:29:25;;;;;;;1.90;1.75;;;;;;;10.57;73.80;100147.41;5095253;28;20036;-72
2021/10/12 04:31:55;;;;;;;1.83;1.63;;;;;;;10.54;73.76;100144.53;5095663;28;20032;-73
2021/10/12 04:34:20;;;;;;;2.47;1.35;;;;;;;10.59;73.60;100133.13;5094947;28;20020;-72
2021/10/12 04:36:49;;;;;;;3.72;1.48;;;;;;;10.48;73.84;100132.88;5095084;28;20028;-75
2021/10/12 04:39:17;;;;;;;1.10;1.10;;;;;;;10.53;73.78;100137.34;5095319;28;20374;-75
2021/10/12 04:41:46;;;;;;;1.60;1.50;;;;;;;10.57;73.96;100135.47;5095105;28;20557;-74
2021/10/12 04:44:12;;;;;;;1.92;1.40;;;;;;;10.48;73.87;100142.03;5094998;28;20023;-75
2021/10/12 04:46:42;;;;;;;2.80;1.67;;;;;;;10.49;74.47;100146.44;5094628;28;20078;-73
2021/10/12 04:49:11;;;;;;;1.52;1.42;;;;;;;10.48;73.80;100139.25;5095016;28;20038;-75
2021/10/12 04:51:40;;;;;;;1.80;1.50;;;;;;;10.48;74.15;100138.44;5095303;28;20036;-72
2021/10/12 04:54:06;;;;;;;1.50;1.40;;;;;;;10.55;73.10;100138.63;5094992;28;20020;-73
2021/10/12 04:56:37;;;;;;;2.10;1.73;;;;;;;10.46;74.19;100141.59;5095025;28;20032;-72
2021/10/12 04:59:09;;;;;;;1.33;1.23;;;;;;;10.52;74.13;100141.31;5094992;28;20462;-72
2021/10/12 05:01:35;;;;;;;2.30;1.60;;;;;;;10.46;73.70;100140.78;5095784;28;20035;-74
2021/10/12 05:04:01;;;;;;;1.60;1.50;;;;;;;10.49;73.60;100145.59;5077596;28;20023;-74
2021/10/12 05:06:27;;;;;;;1.60;1.50;;;;;;;10.47;73.35;100137.63;5094691;28;20115;-73
2021/10/12 05:08:54;;;;;;;2.50;1.42;;;;;;;10.51;73.69;100136.94;5094570;28;20051;-73
2021/10/12 05:11:20;;;;;;;2.40;1.85;;;;;;;10.60;73.38;100141.13;5079019;28;20491;-74
2021/10/12 05:13:50;;;;;;;2.50;2.30;;;;;;;10.57;73.55;100141.03;5096155;28;20062;-73
2021/10/12 05:16:20;;;;;;;3.63;2.63;;;;;;;10.63;73.44;100140.38;5094707;28;20035;-74
2021/10/12 05:18:47;;;;;;;2.80;1.90;;;;;;;10.73;72.34;100141.78;5095586;28;20028;-72
2021/10/12 05:21:13;;;;;;;2.47;2.30;;;;;;;10.79;71.86;100131.16;5077239;28;20089;-75
2021/10/12 05:23:42;;;;;;;4.93;2.22;;;;;;;10.86;71.01;100137.66;5077652;28;20138;-74
2021/10/12 05:26:11;;;;;;;2.30;2.10;;;;;;;10.97;70.42;100138.72;5090463;28;20109;-72
2021/10/12 05:28:37;;;;;;;1.92;1.83;;;;;;;11.14;70.18;100147.81;5093161;28;20028;-72
2021/10/12 05:31:03;;;;;;;2.63;1.75;;;;;;;11.78;68.24;100140.63;5095385;28;20031;-74
2021/10/12 05:33:31;;;;;;;2.70;2.50;;;;;;;12.40;66.99;100149.59;5094728;28;20032;-72
2021/10/12 05:36:00;;;;;;;3.42;3.05;;;;;;;13.07;63.78;100151.72;5094773;28;20020;-72
2021/10/12 05:38:26;;;;;;;2.72;1.90;;;;;;;13.77;61.43;100152.91;5095703;28;20538;-74
2021/10/12 05:40:52;;;;;;;2.90;1.60;;;;;;;14.35;58.78;100147.38;5098167;28;20027;-78
2021/10/12 05:43:19;;;;;;;1.48;1.33;;;;;;;15.05;57.79;100155.78;5101440;28;20016;-75
2021/10/12 05:45:50;;;;;;;3.03;1.67;;;;;;;15.77;57.97;100154.84;5094956;28;20093;-74
2021/10/12 05:48:18;;;;;;;2.00;1.58;;;;;;;16.31;53.42;100157.66;5093056;28;20027;-73
2021/10/12 05:50:46;;;;;;;4.63;1.40;;;;;;;16.72;51.76;100156.00;5092533;28;20071;-73
2021/10/12 05:58:51;;;;;;;2.80;1.48;;;;;;;18.14;48.79;100164.09;5051314;28;20033;-73
2021/10/12 06:01:18;;;;;;;1.80;1.50;;;;;;;18.52;47.54;100167.78;5051116;28;20036;-73
2021/10/12 06:03:47;;;;;;;2.58;1.42;;;;;;;18.86;46.35;100169.91;5074228;28;20110;-74
2021/10/12 06:06:13;;;;;;;1.73;1.48;;;;;;;19.20;45.84;100173.50;5092995;28;20089;-73
2021/10/12 06:08:40;;;;;;;1.33;1.20;;;;;;;19.59;44.55;100172.19;5092235;28;20127;-74
2021/10/12 06:11:07;;;;;;;3.60;1.35;;;;;;;19.61;44.20;100169.78;5092821;28;20475;-73
2021/10/12 06:13:34;;;;;;;2.13;1.30;;;;;;;20.06;43.29;100177.94;5092249;28;20479;-75
2021/10/12 06:16:02;;;;;;;5.25;1.60;;;;;;;20.32;42.25;100174.28;5092222;28;20122;-75
2021/10/12 06:18:30;;;;;;;1.70;1.23;;;;;;;20.61;40.99;100176.63;5092603;28;20035;-73
2021/10/12 06:20:56;;;;;;;5.85;1.30;;;;;;;20.59;41.16;100176.28;5093472;28;20036;-74
2021/10/12 06:23:23;;;;;;;1.60;1.20;;;;;;;20.98;40.92;100181.16;5092163;28;20028;-74
2021/10/12 06:25:51;;;;;;;4.25;1.40;;;;;;;21.27;40.28;100170.09;5092635;28;20385;-74
2021/10/12 06:28:18;;;;;;;1.52;1.10;;;;;;;21.33;39.57;100173.22;5092428;28;20435;-74
2021/10/12 06:30:43;;;;;;;1.42;1.20;;;;;;;21.68;38.89;100168.84;5091674;28;20036;-72
2021/10/12 06:33:12;;;;;;;1.90;1.08;;;;;;;21.79;38.70;100172.22;5092358;28;20382;-72
2021/10/12 06:35:38;;;;;;;3.40;1.10;;;;;;;22.15;38.14;100182.69;5091942;28;20024;-73
2021/10/12 06:38:05;;;;;;;4.72;1.30;;;;;;;22.19;37.40;100174.91;5091971;28;20024;-72
2021/10/12 06:40:35;;;;;;;1.85;1.08;;;;;;;22.28;37.04;100179.97;5093923;28;20082;-72
2021/10/12 06:43:06;;;;;;;1.13;1.00;;;;;;;22.54;36.20;100183.78;5096256;28;20478;-71
2021/10/12 06:45:38;;;;;;;1.05;0.85;;;;;;;22.25;37.07;100178.81;5095890;28;20036;-73
2021/10/12 06:48:04;;;;;;;1.40;1.30;;;;;;;22.56;36.42;100189.78;5096947;28;20390;-73
2021/10/12 06:50:36;;;;;;;1.65;0.82;;;;;;;22.81;35.62;100177.78;5096128;28;20500;-74
2021/10/12 06:53:03;;;;;;;0.70;0.70;;;;;;;22.92;35.07;100184.78;5095814;28;20016;-73
2021/10/12 06:55:29;;;;;;;1.20;1.10;;;;;;;22.72;34.97;100172.72;5095584;28;20036;-73
2021/10/12 06:57:58;;;;;;;1.70;1.10;;;;;;;22.64;34.53;100177.03;5095941;28;20094;-73
2021/10/12 07:00:24;;;;;;;0.98;0.82;;;;;;;22.39;35.67;100181.28;5090972;28;20032;-71
2021/10/12 07:02:49;;;;;;;1.80;0.82;;;;;;;21.32;36.65;100178.09;5078558;28;20039;-71
2021/10/12 07:05:18;;;;;;;1.10;1.00;;;;;;;21.16;37.13;100175.19;5094834;28;20139;-73
2021/10/12 07:07:44;;;;;;;1.50;1.00;;;;;;;21.06;38.27;100170.53;5098335;28;20028;-71
2021/10/12 07:10:14;;;;;;;0.95;0.90;;;;;;;21.45;37.24;100173.34;5098978;28;20475;-72
2021/10/12 07:12:45;;;;;;;1.42;1.13;;;;;;;22.28;35.85;100180.78;5099367;28;20027;-73
2021/10/12 07:15:11;;;;;;;1.27;0.80;;;;;;;22.72;35.24;100182.03;5098701;28;20038;-72
2021/10/12 07:17:38;;;;;;;2.88;1.05;;;;;;;22.49;34.79;100180.22;5098666;28;20027;-73
2021/10/12 07:20:07;;;;;;;1.58;0.90;;;;;;;22.68;35.00;100186.22;5099038;28;20032;-71
2021/10/12 07:22:39;;;;;;;1.27;0.80;;;;;;;23.13;34.31;100185.41;5099081;28;20034;-73
2021/10/12 07:25:07;;;;;;;0.85;0.85;;;;;;;23.19;33.61;100183.63;5098871;28;20027;-71
2021/10/12 07:27:38;;;;;;;1.15;0.90;;;;;;;23.31;34.17;100182.06;5098602;28;20473;-71
2021/10/12 07:30:10;;;;;;;0.82;0.82;;;;;;;23.24;33.55;100188.75;5098868;28;20043;-73
2021/10/12 07:32:38;;;;;;;1.13;1.00;;;;;;;23.13;34.72;100189.06;5098508;28;20501;-72
2021/10/12 07:35:07;;;;;;;1.20;1.05;;;;;;;23.66;34.38;100186.69;5098677;28;20028;-73
2021/10/12 07:37:34;;;;;;;1.13;1.13;;;;;;;22.72;34.70;100189.75;5098493;28;20023;-73
2021/10/12 07:40:04;;;;;;;1.35;0.73;;;;;;;22.29;35.38;100192.91;5099079;28;20385;-74
2021/10/12 07:42:35;;;;;;;1.65;0.90;;;;;;;23.13;33.78;100191.09;5116506;28;20039;-71
2021/10/12 07:45:03;;;;;;;1.25;1.02;;;;;;;23.07;34.12;100190.06;5098928;28;20028;-73
2021/10/12 07:47:29;;;;;;;1.55;0.95;;;;;;;23.61;33.91;100180.75;5098106;28;20027;-73
2021/10/12 07:49:55;;;;;;;0.90;0.80;;;;;;;23.49;33.51;100183.13;5098346;28;20035;-73
2021/10/12 07:52:23;;;;;;;0.75;0.73;;;;;;;21.54;36.21;100183.28;5098077;28;20110;-72
2021/10/12 07:55:01;;;;;;;1.80;1.20;;;;;;;21.35;36.90;100148.91;5098312;28;20027;-72
2021/10/12 07:57:26;;;;;;;1.70;1.00;;;;;;;21.96;36.32;100176.66;5098771;28;20024;-74
2021/10/12 07:59:52;;;;;;;2.22;1.25;;;;;;;22.37;35.28;100178.13;5098149;28;20374;-73
2021/10/12 08:02:20;;;;;;;1.08;0.90;;;;;;;22.55;35.68;100171.19;5098655;28;20065;-71
2021/10/12 08:04:49;;;;;;;1.48;1.20;;;;;;;23.09;34.67;100174.16;5097944;28;20027;-73
2021/10/12 08:07:15;;;;;;;1.35;1.05;;;;;;;23.77;33.65;100169.31;5098504;28;20345;-72
2021/10/12 08:09:41;;;;;;;1.88;0.90;;;;;;;23.92;32.76;100170.47;5097392;28;20404;-72
2021/10/12 08:12:12;;;;;;;1.52;1.10;;;;;;;23.77;32.26;100169.31;5081861;28;20381;-73
2021/10/12 08:14:40;;;;;;;1.00;0.98;;;;;;;22.90;32.80;100167.38;5115816;28;20034;-73
2021/10/12 08:17:06;;;;;;;0.90;0.82;;;;;;;22.45;33.59;100162.50;5097876;28;20028;-71
2021/10/12 08:19:37;;;;;;;0.65;0.65;;;;;;;22.88;33.43;100164.22;5097138;28;20104;-73
2021/10/12 08:22:05;;;;;;;0.88;0.70;;;;;;;23.07;31.86;100167.34;5097654;28;20030;-73
2021/10/12 08:24:31;;;;;;;1.08;0.80;;;;;;;22.85;32.31;100159.41;5097694;28;20034;-72
2021/10/12 08:27:02;;;;;;;1.70;0.70;;;;;;;22.19;34.09;100160.75;5097553;28;20537;-72
2021/10/12 08:29:31;;;;;;;0.70;0.70;;;;;;;22.13;34.22;100162.53;5097570;28;20031;-71
2021/10/12 08:31:59;;;;;;;1.15;0.90;;;;;;;20.96;35.92;100166.69;5097442;28;20091;-72
2021/10/12 08:34:25;;;;;;;1.17;0.90;;;;;;;21.55;35.28;100159.41;5115449;28;20034;-72
2021/10/12 08:36:53;;;;;;;2.75;0.95;;;;;;;21.68;35.42;100154.69;5097374;28;20378;-72
2021/10/12 08:39:29;;;;;;;1.88;0.90;;;;;;;22.46;33.71;100157.63;5097520;28;20584;-73
2021/10/12 08:42:10;;;;;;;1.80;0.82;;;;;;;23.20;32.08;100136.97;5097253;28;20080;-72
2021/10/12 08:44:58;;;;;;;1.38;1.00;;;;;;;23.36;32.02;100151.06;5115119;28;20359;-71
2021/10/12 08:47:31;;;;;;;1.63;1.10;;;;;;;22.99;32.32;100155.41;5115684;28;20069;-71
2021/10/12 08:49:58;;;;;;;1.20;0.80;;;;;;;22.87;33.51;100142.75;5096834;28;20062;-72
2021/10/12 08:52:27;;;;;;;0.80;0.80;;;;;;;23.00;32.88;100146.44;5097224;28;20454;-70
2021/10/12 08:54:59;;;;;;;1.88;1.40;;;;;;;22.52;33.89;100155.06;5092184;28;20024;-69
2021/10/12 08:57:32;;;;;;;1.48;1.05;;;;;;;22.08;34.95;100148.84;5115317;28;20024;-72
2021/10/12 09:00:02;;;;;;;;;;;;;;;21.74;35.17;100141.59;5097408;28;20375;-70
2021/10/12 09:02:30;;;;;;;0.77;0.77;;;;;;;22.38;34.31;100151.34;5096624;28;19915;-72
2021/10/12 09:04:59;;;;;;;2.00;0.95;;;;;;;22.29;34.06;100145.50;5097029;28;20050;-71
2021/10/12 09:07:27;;;;;;;0.90;0.90;;;;;;;23.04;33.26;100151.22;5092261;28;20027;-72
2021/10/12 09:09:55;;;;;;;0.70;0.70;;;;;;;22.76;33.33;100153.59;5096482;28;20032;-72
2021/10/12 09:12:40;;;;;;;1.00;0.90;;;;;;;23.18;32.62;100145.13;5096946;28;20035;-73
2021/10/12 09:15:11;;;;;;;0.77;0.77;;;;;;;23.05;33.00;100141.47;5096441;28;20118;-73
2021/10/12 09:17:39;;;;;;;1.67;0.90;;;;;;;22.61;33.23;100141.03;5096567;28;20081;-73
2021/10/12 09:20:11;;;;;;;2.15;1.00;;;;;;;22.90;32.55;100133.34;5096541;28;20096;-72
2021/10/12 09:22:38;;;;;;;2.30;1.13;;;;;;;22.64;33.32;100128.81;5096484;28;20028;-72
2021/10/12 09:25:14;;;;;;;1.85;1.10;;;;;;;22.64;33.32;100131.66;5096185;28;20100;-73
2021/10/12 09:27:46;;;;;;;1.15;0.90;;;;;;;22.74;32.50;100133.38;5114494;28;20142;-73
2021/10/12 09:30:14;;;;;;;0.80;0.80;;;;;;;22.48;33.31;100132.47;5096254;28;20122;-73
2021/10/12 09:32:43;;;;;;;2.35;1.23;;;;;;;22.41;33.66;100124.94;5096879;28;20035;-74
2021/10/12 09:35:08;;;;;;;1.75;1.05;;;;;;;22.24;33.88;100129.03;5096230;28;20030;-73
2021/10/12 09:37:37;;;;;;;2.22;1.42;;;;;;;22.61;33.71;100126.84;5096788;28;20023;-72
2021/10/12 09:40:18;;;;;;;1.48;1.10;;;;;;;22.83;33.68;100130.69;5096275;28;20035;-74
2021/10/12 09:42:43;;;;;;;1.25;1.15;;;;;;;23.56;32.95;100125.31;5096654;28;20083;-72
2021/10/12 09:45:11;;;;;;;1.52;1.08;;;;;;;23.17;32.95;100126.50;5096177;28;20401;-73
2021/10/12 09:47:39;;;;;;;1.13;1.13;;;;;;;23.18;33.12;100122.44;5096077;28;20042;-73
2021/10/12 09:50:14;;;;;;;1.90;1.40;;;;;;;23.47;33.02;100114.63;5095700;28;20027;-73
2021/10/12 09:52:46;;;;;;;1.40;1.30;;;;;;;22.96;33.10;100123.06;5096552;28;20385;-71
2021/10/12 09:55:13;;;;;;;1.73;1.50;;;;;;;23.11;32.90;100116.94;5095940;28;20019;-72
2021/10/12 09:57:40;;;;;;;1.52;1.40;;;;;;;22.78;33.34;100105.72;5114456;28;20462;-73
2021/10/12 10:00:09;;;;;;;2.00;1.23;;;;;;;22.23;34.57;100107.63;5095843;28;20027;-73
2021/10/12 10:02:37;;;;;;;3.03;1.17;;;;;;;22.85;33.71;100104.69;5095979;28;20031;-72
2021/10/12 10:05:06;;;;;;;1.80;1.40;;;;;;;21.69;35.04;100099.63;5095706;28;20034;-73
2021/10/12 10:07:40;;;;;;;2.55;1.38;;;;;;;22.13;34.93;100094.53;5094495;28;20084;-73
2021/10/12 10:10:09;;;;;;;1.30;1.23;;;;;;;22.86;33.43;100094.97;5095775;28;20085;-74
2021/10/12 10:12:40;;;;;;;1.73;1.42;;;;;;;23.72;32.01;100087.53;5095657;28;20035;-74
2021/10/12 10:15:09;;;;;;;3.60;1.02;;;;;;;23.56;31.42;100064.91;5094830;28;20363;-73
2021/10/12 10:17:40;;;;;;;3.63;1.40;;;;;;;22.86;33.16;100090.09;5095105;28;20031;-72
2021/10/12 10:20:09;;;;;;;2.35;1.00;;;;;;;23.40;32.68;100083.63;5095286;28;20047;-72
2021/10/12 10:22:48;;;;;;;1.33;1.23;;;;;;;23.04;33.23;100077.44;5095194;28;20214;-74
2021/10/12 10:25:32;;;;;;;3.25;1.30;;;;;;;23.16;33.03;100079.50;5095660;28;20377;-73
2021/10/12 10:28:16;;;;;;;6.57;1.60;;;;;;;23.15;32.65;100073.03;5095675;28;20488;-72
2021/10/12 10:30:50;;;;;;;1.58;1.48;;;;;;;22.18;34.31;100074.94;5095648;28;20023;-71
2021/10/12 10:33:28;;;;;;;1.33;1.20;;;;;;;21.30;36.38;100078.69;5114399;28;20347;-73
2021/10/12 10:36:02;;;;;;;1.33;1.23;;;;;;;20.83;35.80;100064.75;5095317;28;20024;-74
2021/10/12 10:38:45;;;;;;;1.60;1.40;;;;;;;21.06;36.01;100074.38;5095594;28;20031;-74
2021/10/12 10:41:15;;;;;;;1.67;1.13;;;;;;;20.74;36.40;100058.88;5113862;28;20102;-73
2021/10/12 10:43:50;;;;;;;1.85;1.50;;;;;;;20.96;35.57;100069.72;5095470;28;20062;-74
2021/10/12 10:46:31;;;;;;;1.70;1.42;;;;;;;21.08;35.17;100069.06;5095319;28;20023;-73
2021/10/12 10:49:21;;;;;;;1.73;1.25;;;;;;;21.41;35.30;100067.94;5095492;28;20028;-72
2021/10/12 10:51:51;;;;;;;1.70;1.60;;;;;;;21.48;35.13;100066.19;5095013;28;20508;-70
2021/10/12 10:54:44;;;;;;;2.45;1.20;;;;;;;22.00;34.90;100063.25;5095022;28;20122;-75
2021/10/12 10:57:30;;;;;;;2.25;1.33;;;;;;;21.71;35.69;100058.31;5096034;28;20055;-72
2021/10/12 11:00:11;;;;;;;2.85;1.58;;;;;;;21.25;35.87;100048.03;5095379;28;20028;-73
2021/10/12 11:02:45;;;;;;;3.72;1.67;;;;;;;20.56;37.35;100047.09;5095394;28;20490;-75
2021/10/12 11:05:33;;;;;;;1.70;1.60;;;;;;;21.32;36.58;100036.63;5095618;28;20488;-71
2021/10/12 11:08:16;;;;;;;2.40;1.90;;;;;;;20.88;37.03;100035.97;5094769;28;20059;-69
2021/10/12 11:10:45;;;;;;;2.78;1.70;;;;;;;20.90;37.79;100030.66;5095087;28;20036;-70
2021/10/12 11:13:12;;;;;;;3.30;1.73;;;;;;;21.09;36.77;100029.03;5095000;28;20032;-71
2021/10/12 11:15:51;;;;;;;2.17;2.08;;;;;;;21.26;36.50;100021.38;5095029;28;20142;-70
2021/10/12 11:18:22;;;;;;;1.33;1.23;;;;;;;21.29;35.92;100017.63;5095564;28;20028;-70
2021/10/12 11:20:51;;;;;;;3.20;2.03;;;;;;;21.03;36.97;100015.81;5095291;28;20381;-73
2021/10/12 11:23:29;;;;;;;3.15;1.40;;;;;;;20.83;36.44;100018.72;5094983;28;20031;-71
2021/10/12 11:25:55;;;;;;;4.28;1.92;;;;;;;20.84;37.19;100006.94;5113869;28;20035;-71
2021/10/12 11:28:24;;;;;;;1.40;1.30;;;;;;;21.61;35.95;100004.78;5098711;28;20028;-72
2021/10/12 11:30:55;;;;;;;2.40;1.55;;;;;;;21.82;35.12;100004.22;5098950;28;20055;-71
2021/10/12 11:33:32;;;;;;;2.17;1.80;;;;;;;21.11;36.63;100003.91;5098670;28;20032;-72
2021/10/12 11:36:00;;;;;;;1.40;1.30;;;;;;;21.30;36.42;99999.44;5098536;28;20119;-72
2021/10/12 11:38:51;;;;;;;1.90;1.80;;;;;;;20.50;38.28;100003.63;5098969;28;20469;-71